createdAt,value
2022-09-28T00:01:21.113Z,9.95
2022-09-28T00:03:49.721Z,9.96
2022-09-28T00:06:19.742Z,9.97
2022-09-28T00:08:47.860Z,9.96
2022-09-28T00:11:16.619Z,9.98
2022-09-28T00:13:44.962Z,9.96
2022-09-28T00:16:17.861Z,9.97
2022-09-28T00:18:46.748Z,9.99
2022-09-28T00:21:15.260Z,9.98
2022-09-28T00:24:01.666Z,9.99
2022-09-28T00:26:30.024Z,9.97
2022-09-28T00:29:02.282Z,9.98
2022-09-28T00:31:32.909Z,10.00
2022-09-28T00:34:01.545Z,10.01
2022-09-28T00:36:30.903Z,10.00
2022-09-28T00:39:00.454Z,10.05
2022-09-28T00:41:28.731Z,10.08
2022-09-28T00:44:28.088Z,10.09
2022-09-28T00:47:12.039Z,10.08
2022-09-28T00:49:55.106Z,10.10
2022-09-28T00:52:37.429Z,10.12
2022-09-28T00:55:07.003Z,10.10
2022-09-28T00:57:34.705Z,10.10
2022-09-28T01:00:02.657Z,10.13
2022-09-28T01:02:30.475Z,10.11
2022-09-28T01:04:59.044Z,10.10
2022-09-28T01:07:26.809Z,10.10
2022-09-28T01:09:55.226Z,10.13
2022-09-28T01:12:23.019Z,10.10
2022-09-28T01:14:50.752Z,10.09
2022-09-28T01:17:23.220Z,10.09
2022-09-28T01:20:21.875Z,10.09
2022-09-28T01:23:20.584Z,10.07
2022-09-28T01:25:56.152Z,10.09
2022-09-28T01:28:28.936Z,10.11
2022-09-28T01:31:19.923Z,10.11
2022-09-28T01:33:54.185Z,10.09
2022-09-28T01:36:35.954Z,10.10
2022-09-28T01:39:09.635Z,10.10
2022-09-28T01:41:41.423Z,10.09
2022-09-28T01:44:11.296Z,10.12
2022-09-28T01:46:45.797Z,10.15
2022-09-28T01:49:21.412Z,10.15
2022-09-28T01:52:15.466Z,10.11
2022-09-28T01:54:51.335Z,10.13
2022-09-28T01:57:20.405Z,10.13
2022-09-28T01:59:56.889Z,10.12
2022-09-28T02:02:27.077Z,10.09
2022-09-28T02:04:57.387Z,10.10
2022-09-28T02:07:49.290Z,10.11
2022-09-28T02:10:21.258Z,10.11
2022-09-28T02:13:04.263Z,10.07
2022-09-28T02:15:54.816Z,10.05
2022-09-28T02:18:22.582Z,10.01
2022-09-28T02:20:55.175Z,10.01
2022-09-28T02:23:23.000Z,9.93
2022-09-28T02:25:57.083Z,9.96
2022-09-28T02:28:24.875Z,9.96
2022-09-28T02:30:52.668Z,9.92
2022-09-28T02:33:26.144Z,9.94
2022-09-28T02:35:53.862Z,9.93
2022-09-28T02:38:21.557Z,9.88
2022-09-28T02:41:05.504Z,9.89
2022-09-28T02:43:36.085Z,9.92
2022-09-28T02:46:12.464Z,9.94
2022-09-28T02:49:20.379Z,9.98
2022-09-28T02:52:08.159Z,9.93
2022-09-28T02:54:54.712Z,9.91
2022-09-28T02:57:39.265Z,9.95
2022-09-28T03:00:11.711Z,9.94
2022-09-28T03:02:42.400Z,9.94
2022-09-28T03:05:33.425Z,9.96
2022-09-28T03:08:05.049Z,9.96
2022-09-28T03:10:47.998Z,9.92
2022-09-28T03:13:15.768Z,9.95
2022-09-28T03:15:48.386Z,9.93
2022-09-28T03:18:16.597Z,9.93
2022-09-28T03:20:44.341Z,9.93
2022-09-28T03:23:24.320Z,9.90
2022-09-28T03:25:53.091Z,9.92
2022-09-28T03:28:22.335Z,9.90
2022-09-28T03:30:50.750Z,9.89
2022-09-28T03:33:18.421Z,9.85
2022-09-28T03:35:49.081Z,9.87
2022-09-28T03:38:18.096Z,9.82
2022-09-28T03:40:53.220Z,9.81
2022-09-28T03:43:21.032Z,9.83
2022-09-28T03:45:59.799Z,9.86
2022-09-28T03:48:34.861Z,9.84
2022-09-28T03:51:04.502Z,9.84
2022-09-28T03:53:32.453Z,9.84
2022-09-28T03:56:11.234Z,9.84
2022-09-28T03:58:39.010Z,9.87
2022-09-28T04:01:16.834Z,9.81
2022-09-28T04:03:45.610Z,9.76
2022-09-28T04:06:13.415Z,9.74
2022-09-28T04:08:41.222Z,9.76
2022-09-28T04:11:09.000Z,9.78
2022-09-28T04:13:36.792Z,9.79
2022-09-28T04:16:06.226Z,9.78
2022-09-28T04:18:34.181Z,9.76
2022-09-28T04:21:09.275Z,9.78
2022-09-28T04:23:37.716Z,9.76
2022-09-28T04:26:17.767Z,9.78
2022-09-28T04:29:06.813Z,9.80
2022-09-28T04:31:50.790Z,9.81
2022-09-28T04:34:20.480Z,9.81
2022-09-28T04:36:48.447Z,9.82
2022-09-28T04:39:17.201Z,9.82
2022-09-28T04:41:44.974Z,9.77
2022-09-28T04:44:13.142Z,9.76
2022-09-28T04:46:40.836Z,9.75
2022-09-28T04:49:10.806Z,9.74
2022-09-28T04:51:38.666Z,9.76
2022-09-28T04:54:06.380Z,9.78
2022-09-28T04:56:34.098Z,9.74
2022-09-28T04:59:01.833Z,9.74
2022-09-28T05:01:31.099Z,9.74
2022-09-28T05:03:58.879Z,9.72
2022-09-28T05:06:29.676Z,9.71
2022-09-28T05:08:58.727Z,9.71
2022-09-28T05:11:26.532Z,9.74
2022-09-28T05:13:54.338Z,9.75
2022-09-28T05:16:22.282Z,9.76
2022-09-28T05:18:50.105Z,9.74
2022-09-28T05:21:20.673Z,9.73
2022-09-28T05:23:48.725Z,9.73
2022-09-28T05:26:16.707Z,9.72
2022-09-28T05:28:45.737Z,9.70
2022-09-28T05:31:13.541Z,9.70
2022-09-28T05:33:41.296Z,9.71
2022-09-28T05:36:12.269Z,9.72
2022-09-28T05:38:40.005Z,9.74
2022-09-28T05:41:07.768Z,9.71
2022-09-28T05:43:35.553Z,9.66
2022-09-28T05:46:03.329Z,9.69
2022-09-28T05:48:31.639Z,9.72
2022-09-28T05:51:00.657Z,9.93
2022-09-28T05:53:28.331Z,10.23
2022-09-28T05:56:00.212Z,10.38
2022-09-28T05:58:29.229Z,10.49
2022-09-28T06:00:57.413Z,10.65
2022-09-28T06:03:25.361Z,10.74
2022-09-28T06:05:53.088Z,10.85
2022-09-28T06:08:20.828Z,10.50
2022-09-28T06:10:48.554Z,10.24
2022-09-28T06:13:16.278Z,10.12
2022-09-28T06:15:44.152Z,10.02
2022-09-28T06:18:13.012Z,9.90
2022-09-28T06:20:43.494Z,9.82
2022-09-28T06:23:11.911Z,9.83
2022-09-28T06:25:39.915Z,9.80
2022-09-28T06:28:12.335Z,9.81
2022-09-28T06:30:40.303Z,9.80
2022-09-28T06:33:09.390Z,9.79
2022-09-28T06:35:37.234Z,9.78
2022-09-28T06:38:05.316Z,9.84
2022-09-28T06:40:33.341Z,9.80
2022-09-28T06:43:04.492Z,9.80
2022-09-28T06:45:32.254Z,9.80
2022-09-28T06:48:00.986Z,9.82
2022-09-28T06:50:37.029Z,9.81
2022-09-28T06:53:05.843Z,9.81
2022-09-28T06:55:33.730Z,9.84
2022-09-28T06:58:06.184Z,9.89
2022-09-28T07:00:35.628Z,9.94
2022-09-28T07:03:03.800Z,9.90
2022-09-28T07:05:31.689Z,9.94
2022-09-28T07:07:59.439Z,9.90
2022-09-28T07:10:28.872Z,9.88
2022-09-28T07:12:56.968Z,9.93
2022-09-28T07:15:25.755Z,9.91
2022-09-28T07:18:03.582Z,9.92
2022-09-28T07:20:35.577Z,9.95
2022-09-28T07:23:17.618Z,9.98
2022-09-28T07:25:48.962Z,9.99
2022-09-28T07:28:18.697Z,9.99
2022-09-28T07:30:46.558Z,10.03
2022-09-28T07:33:15.620Z,10.03
2022-09-28T07:35:44.059Z,10.07
2022-09-28T07:38:11.828Z,10.09
2022-09-28T07:40:58.069Z,10.12
2022-09-28T07:43:42.873Z,10.13
2022-09-28T07:46:13.502Z,10.14
2022-09-28T07:48:48.990Z,10.12
2022-09-28T07:51:22.436Z,10.16
2022-09-28T07:53:50.283Z,10.17
2022-09-28T07:56:21.558Z,10.21
2022-09-28T07:58:49.818Z,10.26
2022-09-28T08:01:20.410Z,10.27
2022-09-28T08:03:49.077Z,10.26
2022-09-28T08:06:18.251Z,10.29
2022-09-28T08:08:46.057Z,10.30
2022-09-28T08:11:14.556Z,10.35
2022-09-28T08:13:42.323Z,10.40
2022-09-28T08:16:10.112Z,10.41
2022-09-28T08:18:38.000Z,10.48
2022-09-28T08:21:25.044Z,10.52
2022-09-28T08:23:52.885Z,10.62
2022-09-28T08:26:20.725Z,10.67
2022-09-28T08:28:48.948Z,10.67
2022-09-28T08:31:16.936Z,10.69
2022-09-28T08:33:44.704Z,10.71
2022-09-28T08:36:12.512Z,10.74
2022-09-28T08:38:40.270Z,10.72
2022-09-28T08:41:28.196Z,10.73
2022-09-28T08:43:58.698Z,10.73
2022-09-28T08:46:37.227Z,10.73
2022-09-28T08:49:24.859Z,10.78
2022-09-28T08:52:13.298Z,10.82
2022-09-28T08:54:43.960Z,10.85
2022-09-28T08:57:24.311Z,10.88
2022-09-28T08:59:57.147Z,10.90
2022-09-28T09:02:37.947Z,10.94
2022-09-28T09:05:07.499Z,10.90
2022-09-28T09:07:44.140Z,10.93
2022-09-28T09:10:59.007Z,10.89
2022-09-28T09:13:51.786Z,10.99
2022-09-28T09:16:43.309Z,10.98
2022-09-28T09:19:36.705Z,11.04
2022-09-28T09:22:16.613Z,10.98
2022-09-28T09:25:01.908Z,11.08
2022-09-28T09:27:41.666Z,11.09
2022-09-28T09:30:30.271Z,11.09
2022-09-28T09:33:33.176Z,11.13
2022-09-28T09:36:36.807Z,11.21
2022-09-28T09:39:28.899Z,11.24
2022-09-28T09:42:29.270Z,11.29
2022-09-28T09:45:06.218Z,11.37
2022-09-28T09:47:51.832Z,11.39
2022-09-28T09:50:31.207Z,11.37
2022-09-28T09:53:18.286Z,11.31
2022-09-28T09:55:47.405Z,11.31
2022-09-28T09:58:35.252Z,11.27
2022-09-28T10:01:11.604Z,11.25
2022-09-28T10:03:42.828Z,11.27
2022-09-28T10:06:16.638Z,11.25
2022-09-28T10:08:49.838Z,11.27
2022-09-28T10:11:42.425Z,11.24
2022-09-28T10:14:16.895Z,11.24
2022-09-28T10:16:45.758Z,11.23
2022-09-28T10:19:14.472Z,11.23
2022-09-28T10:21:42.734Z,11.22
2022-09-28T10:24:29.230Z,11.23
2022-09-28T10:26:57.037Z,11.24
2022-09-28T10:29:26.434Z,11.20
2022-09-28T10:31:55.176Z,11.21
2022-09-28T10:34:30.412Z,11.20
2022-09-28T10:37:01.102Z,11.19
2022-09-28T10:39:30.904Z,11.20
2022-09-28T10:42:00.961Z,11.19
2022-09-28T10:44:28.969Z,11.19
2022-09-28T10:47:02.074Z,11.17
2022-09-28T10:49:37.017Z,11.15
2022-09-28T10:52:05.715Z,11.15
2022-09-28T10:54:33.432Z,11.17
2022-09-28T10:57:01.535Z,11.15
2022-09-28T10:59:32.284Z,11.18
2022-09-28T11:02:21.761Z,11.20
2022-09-28T11:04:56.438Z,11.18
2022-09-28T11:07:26.196Z,11.19
2022-09-28T11:09:55.640Z,11.22
2022-09-28T11:12:28.069Z,11.26
2022-09-28T11:15:01.512Z,11.26
2022-09-28T11:17:39.749Z,11.26
2022-09-28T11:20:28.777Z,11.30
2022-09-28T11:22:58.433Z,11.32
2022-09-28T11:25:28.122Z,11.32
2022-09-28T11:27:55.904Z,11.32
2022-09-28T11:30:52.259Z,11.33
2022-09-28T11:33:39.541Z,11.31
2022-09-28T11:36:18.088Z,11.32
2022-09-28T11:38:58.692Z,11.32
2022-09-28T11:41:42.055Z,11.32
2022-09-28T11:44:19.297Z,11.30
2022-09-28T11:47:08.932Z,11.30
2022-09-28T11:50:00.053Z,11.33
2022-09-28T11:52:58.728Z,11.42
2022-09-28T11:55:33.656Z,11.53
2022-09-28T11:58:25.517Z,11.57
2022-09-28T12:01:00.982Z,11.60
2022-09-28T12:03:43.605Z,11.58
2022-09-28T12:06:16.785Z,11.57
2022-09-28T12:08:50.280Z,11.53
2022-09-28T12:11:23.335Z,11.53
2022-09-28T12:13:52.623Z,11.49
2022-09-28T12:19:52.470Z,11.51
2022-09-28T12:22:39.629Z,11.52
2022-09-28T12:25:10.930Z,11.53
2022-09-28T12:27:45.009Z,11.48
2022-09-28T12:30:17.415Z,11.50
2022-09-28T12:32:51.122Z,11.45
2022-09-28T12:35:30.882Z,11.40
2022-09-28T12:37:59.759Z,11.35
2022-09-28T12:40:39.575Z,11.30
2022-09-28T12:43:10.781Z,11.26
2022-09-28T12:46:10.941Z,11.26
2022-09-28T12:49:56.269Z,11.31
2022-09-28T12:52:01.485Z,11.39
2022-09-28T12:55:04.249Z,11.43
2022-09-28T12:57:37.778Z,11.33
2022-09-28T13:00:06.985Z,11.28
2022-09-28T13:03:09.002Z,11.18
2022-09-28T13:05:45.430Z,11.18
2022-09-28T13:08:34.376Z,11.22
2022-09-28T13:11:15.206Z,11.23
2022-09-28T13:14:17.890Z,11.25
2022-09-28T13:17:05.945Z,11.27
2022-09-28T13:19:39.510Z,11.25
2022-09-28T13:22:24.258Z,11.23
2022-09-28T13:24:52.611Z,11.20
2022-09-28T13:27:30.135Z,11.18
2022-09-28T13:30:00.851Z,11.16
2022-09-28T13:32:32.743Z,11.17
2022-09-28T13:35:00.548Z,11.15
2022-09-28T13:37:29.271Z,11.12
2022-09-28T13:40:00.089Z,11.09
2022-09-28T13:42:46.084Z,11.07
2022-09-28T13:45:22.632Z,11.06
2022-09-28T13:48:03.522Z,11.09
2022-09-28T13:50:37.731Z,11.02
2022-09-28T13:53:17.775Z,11.01
2022-09-28T13:55:55.068Z,10.97
2022-09-28T13:58:26.492Z,10.95
2022-09-28T14:01:12.386Z,10.93
2022-09-28T14:03:56.522Z,10.88
2022-09-28T14:06:33.902Z,10.88
2022-09-28T14:09:14.765Z,10.88
2022-09-28T14:12:01.364Z,10.87
2022-09-28T14:14:49.628Z,10.86
2022-09-28T14:17:20.313Z,10.84
2022-09-28T14:19:55.952Z,10.75
2022-09-28T14:22:45.573Z,10.72
2022-09-28T14:25:26.777Z,10.66
2022-09-28T14:28:02.406Z,10.64
2022-09-28T14:30:50.684Z,10.61
2022-09-28T14:33:28.005Z,10.62
2022-09-28T14:35:57.653Z,10.63
2022-09-28T14:39:06.922Z,10.54
2022-09-28T14:41:39.212Z,10.51
2022-09-28T14:44:11.225Z,10.50
2022-09-28T14:46:44.486Z,10.52
2022-09-28T14:49:18.614Z,10.51
2022-09-28T14:51:49.382Z,10.50
2022-09-28T14:54:24.263Z,10.50
2022-09-28T14:56:54.699Z,10.49
2022-09-28T14:59:27.279Z,10.46
2022-09-28T15:02:16.547Z,10.40
2022-09-28T15:05:00.834Z,10.39
2022-09-28T15:07:43.521Z,10.36
2022-09-28T15:10:34.843Z,10.34
2022-09-28T15:13:07.093Z,10.29
2022-09-28T15:15:39.822Z,10.27
2022-09-28T15:18:13.422Z,10.26
2022-09-28T15:20:42.667Z,10.29
2022-09-28T15:23:25.800Z,10.28
2022-09-28T15:25:54.186Z,10.28
2022-09-28T15:28:25.971Z,10.31
2022-09-28T15:31:02.997Z,10.26
2022-09-28T15:33:53.178Z,10.22
2022-09-28T15:36:29.708Z,10.23
2022-09-28T15:39:01.868Z,10.15
2022-09-28T15:41:30.036Z,10.06
2022-09-28T15:44:24.560Z,10.02
2022-09-28T15:46:53.263Z,9.97
2022-09-28T15:49:35.623Z,9.94
2022-09-28T15:52:06.031Z,9.98
2022-09-28T15:54:43.147Z,9.99
2022-09-28T15:57:29.406Z,9.99
2022-09-28T16:00:00.771Z,9.97
2022-09-28T16:02:29.020Z,9.94
2022-09-28T16:04:59.917Z,9.89
2022-09-28T16:07:40.263Z,9.90
2022-09-28T16:10:14.179Z,9.93
2022-09-28T16:12:44.507Z,9.94
2022-09-28T16:15:16.007Z,9.90
2022-09-28T16:17:43.732Z,9.88
2022-09-28T16:20:28.172Z,9.86
2022-09-28T16:22:58.040Z,9.88
2022-09-28T16:25:26.869Z,9.87
2022-09-28T16:27:56.068Z,9.87
2022-09-28T16:30:29.924Z,9.89
2022-09-28T16:33:06.344Z,9.86
2022-09-28T16:35:41.525Z,9.84
2022-09-28T16:38:17.708Z,9.84
2022-09-28T16:40:50.687Z,9.83
2022-09-28T16:43:28.771Z,9.82
2022-09-28T16:46:23.367Z,9.81
2022-09-28T16:48:51.293Z,9.85
2022-09-28T16:51:19.826Z,9.84
2022-09-28T16:54:05.975Z,9.82
2022-09-28T16:56:37.296Z,9.82
2022-09-28T16:59:05.739Z,9.81
2022-09-28T17:01:34.105Z,9.74
2022-09-28T17:04:01.983Z,9.69
2022-09-28T17:06:29.761Z,9.65
2022-09-28T17:08:57.787Z,9.63
2022-09-28T17:11:25.638Z,9.61
2022-09-28T17:13:59.257Z,9.62
2022-09-28T17:16:49.767Z,9.60
2022-09-28T17:19:20.484Z,9.63
2022-09-28T17:21:48.630Z,9.66
2022-09-28T17:24:16.575Z,9.66
2022-09-28T17:26:45.669Z,9.59
2022-09-28T17:29:15.555Z,9.57
2022-09-28T17:31:44.113Z,9.58
2022-09-28T17:34:12.664Z,9.61
2022-09-28T17:36:42.249Z,9.62
2022-09-28T17:39:17.805Z,9.59
2022-09-28T17:41:45.897Z,9.63
2022-09-28T17:44:17.064Z,9.61
2022-09-28T17:46:49.963Z,9.58
2022-09-28T17:49:18.042Z,9.57
2022-09-28T17:51:45.827Z,9.61
2022-09-28T17:54:14.711Z,9.62
2022-09-28T17:56:43.865Z,9.61
2022-09-28T17:59:13.749Z,9.63
2022-09-28T18:01:41.750Z,9.60
2022-09-28T18:04:19.063Z,9.58
2022-09-28T18:06:55.615Z,9.50
2022-09-28T18:09:26.050Z,9.48
2022-09-28T18:12:00.640Z,9.47
2022-09-28T18:14:29.490Z,9.47
2022-09-28T18:16:57.641Z,9.46
2022-09-28T18:19:28.602Z,9.46
2022-09-28T18:21:59.838Z,9.48
2022-09-28T18:24:27.680Z,9.44
2022-09-28T18:26:55.424Z,9.46
2022-09-28T18:29:23.129Z,9.50
2022-09-28T18:31:51.345Z,9.48
2022-09-28T18:34:19.212Z,9.52
2022-09-28T18:36:47.065Z,9.50
2022-09-28T18:39:14.823Z,9.51
2022-09-28T18:41:43.072Z,9.52
2022-09-28T18:44:11.067Z,9.53
2022-09-28T18:46:39.090Z,9.55
2022-09-28T18:49:06.985Z,9.54
2022-09-28T18:51:34.772Z,9.55
2022-09-28T18:54:07.811Z,9.55
2022-09-28T18:56:38.163Z,9.55
2022-09-28T18:59:11.931Z,9.54
2022-09-28T19:01:40.098Z,9.58
2022-09-28T19:04:08.814Z,9.57
2022-09-28T19:06:39.168Z,9.58
2022-09-28T19:09:07.606Z,9.60
2022-09-28T19:11:35.544Z,9.62
2022-09-28T19:14:04.727Z,9.64
2022-09-28T19:16:34.955Z,9.64
2022-09-28T19:19:04.194Z,9.64
2022-09-28T19:21:32.158Z,9.65
2022-09-28T19:24:03.297Z,9.64
2022-09-28T19:26:31.355Z,9.62
2022-09-28T19:28:59.405Z,9.63
2022-09-28T19:31:27.475Z,9.64
2022-09-28T19:33:55.219Z,9.62
2022-09-28T19:36:24.745Z,9.61
2022-09-28T19:38:56.462Z,9.61
2022-09-28T19:41:44.810Z,9.61
2022-09-28T19:44:16.827Z,9.61
2022-09-28T19:46:44.666Z,9.63
2022-09-28T19:49:14.531Z,9.63
2022-09-28T19:52:01.613Z,9.59
2022-09-28T19:54:36.371Z,9.58
2022-09-28T19:57:09.477Z,9.52
2022-09-28T19:59:37.983Z,9.49
2022-09-28T20:02:06.843Z,9.48
2022-09-28T20:04:34.655Z,9.51
2022-09-28T20:07:02.885Z,9.50
2022-09-28T20:09:30.817Z,9.52
2022-09-28T20:11:58.693Z,9.51
2022-09-28T20:14:31.237Z,9.50
2022-09-28T20:17:01.932Z,9.50
2022-09-28T20:19:29.701Z,9.52
2022-09-28T20:21:59.738Z,9.53
2022-09-28T20:24:29.836Z,9.50
2022-09-28T20:26:57.666Z,9.54
2022-09-28T20:29:25.546Z,9.51
2022-09-28T20:31:53.290Z,9.54
2022-09-28T20:34:21.070Z,9.56
2022-09-28T20:36:49.371Z,9.58
2022-09-28T20:39:17.188Z,9.54
2022-09-28T20:41:47.284Z,9.57
2022-09-28T20:44:15.103Z,9.59
2022-09-28T20:46:44.831Z,9.57
2022-09-28T20:49:12.970Z,9.57
2022-09-28T20:51:40.689Z,9.58
2022-09-28T20:54:08.533Z,9.58
2022-09-28T20:56:39.162Z,9.58
2022-09-28T20:59:11.646Z,9.54
2022-09-28T21:01:39.506Z,9.53
2022-09-28T21:04:08.089Z,9.55
2022-09-28T21:06:37.230Z,9.54
2022-09-28T21:09:05.600Z,9.49
2022-09-28T21:11:34.182Z,9.51
2022-09-28T21:14:02.814Z,9.50
2022-09-28T21:16:31.746Z,9.51
2022-09-28T21:18:59.563Z,9.52
2022-09-28T21:21:27.670Z,9.53
2022-09-28T21:23:56.057Z,9.52
2022-09-28T21:26:26.085Z,9.51
2022-09-28T21:28:57.696Z,9.53
2022-09-28T21:31:29.207Z,9.51
2022-09-28T21:33:57.770Z,9.51
2022-09-28T21:36:25.894Z,9.52
2022-09-28T21:38:55.276Z,9.52
2022-09-28T21:41:23.289Z,9.54
2022-09-28T21:43:51.251Z,9.54
2022-09-28T21:46:19.025Z,9.52
2022-09-28T21:48:46.852Z,9.56
2022-09-28T21:51:15.118Z,9.55
2022-09-28T21:53:43.737Z,9.56
2022-09-28T21:56:12.656Z,9.54
2022-09-28T21:58:41.150Z,9.54
2022-09-28T22:01:14.153Z,9.52
2022-09-28T22:03:42.515Z,9.50
2022-09-28T22:06:10.329Z,9.49
2022-09-28T22:08:38.445Z,9.48
2022-09-28T22:11:25.669Z,9.51
2022-09-28T22:13:55.409Z,9.46
2022-09-28T22:16:24.818Z,9.45
2022-09-28T22:18:52.670Z,9.47
2022-09-28T22:21:24.233Z,9.46
2022-09-28T22:23:52.173Z,9.48
2022-09-28T22:26:26.546Z,9.47
2022-09-28T22:28:58.824Z,9.46
2022-09-28T22:31:31.687Z,9.47
2022-09-28T22:33:59.587Z,9.49
2022-09-28T22:36:27.301Z,9.46
2022-09-28T22:38:58.210Z,9.48
2022-09-28T22:41:26.143Z,9.46
2022-09-28T22:43:54.522Z,9.44
2022-09-28T22:46:24.079Z,9.44
2022-09-28T22:48:56.497Z,9.46
2022-09-28T22:51:24.893Z,9.46
2022-09-28T22:53:52.688Z,9.47
2022-09-28T22:56:20.406Z,9.44
2022-09-28T22:58:48.166Z,9.40
2022-09-28T23:01:23.994Z,9.42
2022-09-28T23:03:52.404Z,9.40
2022-09-28T23:06:22.122Z,9.42
2022-09-28T23:08:51.199Z,9.44
2022-09-28T23:11:19.319Z,9.42
2022-09-28T23:13:51.725Z,9.43
2022-09-28T23:16:19.743Z,9.41
2022-09-28T23:18:47.666Z,9.44
2022-09-28T23:21:16.586Z,9.39
2022-09-28T23:23:45.029Z,9.40
2022-09-28T23:26:17.432Z,9.41
2022-09-28T23:28:45.321Z,9.39
2022-09-28T23:31:27.232Z,9.37
2022-09-28T23:34:05.142Z,9.39
2022-09-28T23:36:33.225Z,9.40
2022-09-28T23:39:01.037Z,9.37
2022-09-28T23:41:28.795Z,9.41
2022-09-28T23:43:56.501Z,9.39
2022-09-28T23:46:24.274Z,9.40
2022-09-28T23:48:52.188Z,9.42
2022-09-28T23:51:19.898Z,9.43
2022-09-28T23:53:47.672Z,9.44
2022-09-28T23:56:15.716Z,9.47
2022-09-28T23:58:43.443Z,9.48
